Date,TemperatureHighF,TemperatureAvgF,TemperatureLowF,DewpointHighF,DewpointAvgF,DewpointLowF,HumidityHigh,HumidityAvg,HumidityLow,PressureMaxIn,PressureMinIn,WindSpeedMaxMPH,WindSpeedAvgMPH,GustSpeedMaxMPH,PrecipitationSumIn
2013-1-1,35.1,22.2,9.3,16.0,7.7,-4.9,78,55,36,30.19,30.04,29,7,29,0.00
2013-1-2,29.8,20.8,7.9,1.1,-5.0,-16.7,46,32,23,30.25,30.16,25,9,25,0.00
2013-1-3,40.3,26.8,13.5,9.2,1.1,-9.8,35,32,27,30.25,30.13,20,8,20,0.00
2013-1-4,45.0,30.2,18.3,14.6,6.2,-0.2,48,36,21,30.13,30.07,20,6,20,0.00
2013-1-5,38.5,22.5,12.6,11.3,4.7,-3.3,71,47,29,30.22,30.10,16,6,16,0.00
2013-1-6,44.6,30.5,19.8,13.3,8.6,3.7,64,41,25,30.10,29.89,14,5,14,0.00
2013-1-7,42.6,29.8,15.4,16.8,10.4,4.3,70,44,30,29.95,29.75,15,5,15,0.00
2013-1-8,41.7,33.1,21.2,17.0,10.7,5.2,56,39,29,30.04,29.78,27,6,27,0.00
2013-1-9,43.9,35.1,22.5,20.0,16.5,10.7,77,48,33,30.04,29.78,26,8,26,0.00
2013-1-10,48.9,27.5,10.8,25.4,15.9,7.7,96,65,31,29.78,29.60,20,6,20,0.00
2013-1-11,10.6,3.7,0.7,7.6,1.0,-2.0,88,88,88,29.95,29.63,27,12,27,0.00
2013-1-12,9.9,2.7,-4.9,6.5,-0.0,-7.5,88,88,88,29.98,29.92,13,4,14,0.00
2013-1-13,22.8,3.1,-6.7,9.0,-7.8,-22.9,88,63,41,30.04,29.98,14,5,14,0.00
2013-1-14,18.5,5.2,-4.2,9.6,-14.4,-20.7,81,39,34,30.01,29.92,16,5,16,0.00
2013-1-15,40.6,21.6,9.1,21.7,13.1,5.0,91,71,41,30.13,29.95,9,3,9,0.00
2013-1-16,43.3,29.5,16.3,20.1,11.4,6.7,80,49,29,30.31,30.13,19,5,19,0.00
2013-1-17,52.2,33.0,23.5,18.6,9.4,4.0,49,38,22,30.34,30.10,12,6,12,0.00
2013-1-18,59.2,41.2,25.3,16.1,6.9,0.8,40,25,15,30.10,29.98,29,8,29,0.00
2013-1-19,54.0,32.7,22.3,15.5,6.8,1.2,47,34,16,30.22,30.07,17,5,17,0.00
2013-1-20,39.9,21.9,13.8,16.7,12.0,3.5,93,68,28,30.31,30.13,17,4,17,0.00
2013-1-21,50.7,31.7,19.2,16.1,9.9,1.3,66,41,24,30.19,30.01,10,4,10,0.00
2013-1-22,53.2,33.9,21.2,16.8,5.6,-1.7,37,31,16,30.10,30.04,10,5,10,0.00
2013-1-23,48.4,38.3,27.1,17.1,9.2,2.8,36,30,22,30.13,29.98,23,5,23,0.00
2013-1-24,49.6,38.3,22.3,18.6,13.4,8.1,59,37,22,30.10,29.92,38,6,38,0.00
2013-1-25,49.5,36.6,25.0,23.0,14.8,5.6,47,41,34,30.10,29.95,24,8,24,0.00
2013-1-26,52.3,37.6,31.5,24.8,19.6,16.2,60,48,35,29.98,29.78,20,4,20,0.00
2013-1-27,37.8,27.0,21.4,26.0,20.6,6.1,93,78,45,29.83,29.78,19,7,19,0.00
2013-1-28,33.6,19.5,10.8,13.1,4.7,-4.2,74,52,41,29.83,29.75,15,6,15,0.00
2013-1-29,19.9,12.6,-5.1,12.5,0.8,-14.1,81,60,39,30.01,29.72,22,6,22,0.00
2013-1-30,32.9,21.8,7.5,22.9,11.5,-3.5,94,65,47,29.95,29.80,25,6,25,0.00
2013-1-31,34.5,22.6,15.1,22.6,15.1,9.2,93,74,51,30.07,29.95,22,5,22,0.00
2013-2-1,41.0,27.7,18.7,19.0,12.6,5.1,69,53,38,30.22,30.01,19,6,19,0.00
2013-2-2,48.4,27.8,15.3,18.2,8.8,1.5,61,45,28,30.31,30.19,16,6,17,0.00
2013-2-3,51.1,32.2,23.4,18.3,9.4,3.2,51,39,24,30.19,29.95,16,5,16,0.00
2013-2-4,47.3,33.7,23.5,18.7,13.3,6.1,63,43,29,29.95,29.86,13,4,13,0.00
2013-2-5,54.3,32.1,22.3,22.5,14.6,8.9,68,49,29,29.98,29.80,15,5,15,0.00
2013-2-6,50.4,29.8,17.6,22.7,10.7,1.7,76,45,30,30.07,29.83,17,5,17,0.00
2013-2-7,37.0,26.8,17.1,14.9,5.4,-4.3,56,40,32,30.07,29.92,17,8,17,0.00
2013-2-8,36.0,27.6,18.7,12.9,8.0,2.7,66,44,33,29.95,29.89,13,5,13,0.00
2013-2-9,33.8,24.6,16.9,22.7,14.4,6.6,94,66,41,29.89,29.78,22,5,22,0.00
2013-2-10,21.9,15.5,-4.0,20.0,5.8,-17.3,93,67,43,30.04,29.89,28,10,28,0.00
2013-2-11,27.7,13.0,-2.7,9.3,-1.2,-16.2,73,53,33,30.01,29.92,23,7,23,0.00
2013-2-12,42.1,24.3,11.1,13.9,7.2,-1.5,73,49,31,30.04,29.92,17,6,17,0.00
2013-2-13,44.1,32.1,21.6,23.3,14.3,7.9,76,48,33,30.07,29.92,30,7,30,0.00
2013-2-14,32.5,20.6,16.5,23.0,14.6,6.8,94,78,43,30.25,30.07,26,7,26,0.00
2013-2-15,43.5,27.8,19.4,19.6,11.9,6.2,81,52,36,30.28,30.16,28,7,28,0.00
2013-2-16,55.4,34.7,18.7,20.3,12.5,4.4,65,42,26,30.16,29.83,20,5,20,0.00
2013-2-17,38.5,28.6,16.9,27.1,12.8,5.3,95,53,35,29.95,29.72,27,10,27,0.00
2013-2-18,35.2,19.3,6.8,20.6,11.9,-0.3,94,74,38,30.04,29.92,15,4,15,0.00
2013-2-19,37.4,19.3,8.8,14.7,6.3,-1.0,82,58,39,29.95,29.75,15,5,15,0.00
2013-2-20,31.1,19.9,12.6,17.1,12.2,6.1,92,73,46,29.83,29.75,17,5,17,0.00
2013-2-21,36.0,20.7,10.4,23.5,9.9,-2.5,92,65,40,29.89,29.83,17,5,17,0.00
2013-2-22,39.4,21.7,11.1,14.0,4.7,-5.2,82,49,29,29.92,29.72,19,6,19,0.00
2013-2-23,32.9,26.1,21.9,22.1,10.6,3.8,84,52,38,29.95,29.66,26,8,26,0.00
2013-2-24,34.5,23.2,12.7,13.1,7.2,1.2,69,51,37,30.10,29.95,24,7,24,0.00
2013-2-25,39.0,24.9,12.9,14.0,8.3,0.6,70,49,33,29.98,29.83,17,5,17,0.00
2013-2-26,33.1,23.2,12.7,10.3,2.8,-5.0,58,41,32,30.16,29.89,19,8,19,0.00
2013-2-27,36.7,22.9,11.3,13.0,2.7,-6.8,75,42,30,30.16,30.16,20,7,20,0.00
2013-2-28,43.3,26.9,13.5,15.0,5.8,-4.2,51,40,31,30.25,30.16,16,4,16,0.00
2013-3-1,56.5,36.2,19.9,24.7,17.3,2.0,68,47,28,30.25,30.22,8,4,8,0.00
2013-3-2,56.3,42.8,30.0,24.8,19.4,14.8,62,40,27,30.25,29.95,17,5,17,0.00
2013-3-3,61.9,36.1,21.9,28.6,16.5,-2.1,96,47,25,29.95,29.66,32,10,32,0.00
2013-3-4,23.7,16.6,5.0,6.1,-0.6,-9.3,56,46,36,30.22,29.86,32,11,32,0.00
2013-3-5,36.1,18.6,3.6,12.5,2.2,-10.7,62,48,39,30.19,29.98,17,6,17,0.00
2013-3-6,54.3,34.6,19.6,24.6,13.3,3.8,63,42,31,29.98,29.78,23,6,23,0.00
2013-3-7,46.2,34.6,21.4,16.1,10.1,2.0,56,36,25,30.04,29.83,29,6,29,0.00
2013-3-8,39.2,30.3,19.8,26.1,18.3,10.7,88,61,43,30.01,29.86,16,5,16,0.00
2013-3-9,36.9,29.4,19.8,22.2,11.6,4.2,80,48,36,30.19,29.92,27,10,27,0.00
2013-3-10,49.3,32.3,14.4,19.5,10.3,-1.5,58,40,28,30.19,30.01,11,4,11,0.00
2013-3-11,39.4,30.1,17.8,22.6,15.8,8.5,92,58,29,30.22,30.01,27,8,27,0.00
2013-3-12,43.5,24.7,6.8,19.6,12.0,1.7,88,60,38,30.22,30.07,14,5,14,0.00
2013-3-13,56.7,44.1,29.5,25.0,20.4,15.8,61,39,27,30.19,30.07,18,5,18,0.00
2013-3-14,59.5,46.4,37.0,29.0,23.0,18.5,55,40,28,30.22,30.04,18,5,18,0.00
2013-3-15,58.1,44.5,31.3,31.0,20.4,14.3,90,41,20,30.07,29.98,24,7,24,0.00
2013-3-16,53.1,37.3,26.4,26.6,20.8,11.9,89,54,30,30.07,29.75,24,5,24,0.00
2013-3-17,40.3,29.7,21.4,26.5,11.8,-0.7,96,49,30,29.86,29.57,27,9,27,0.00
2013-3-18,39.7,23.9,9.1,17.8,1.7,-7.0,82,40,20,29.95,29.83,30,8,30,0.00
2013-3-19,39.6,24.6,15.3,17.8,6.7,0.7,87,48,31,30.19,29.92,25,7,25,0.00
2013-3-20,56.3,34.2,18.3,21.8,12.3,2.0,55,41,26,30.16,29.69,22,5,22,0.00
2013-3-21,44.1,30.3,16.5,30.3,16.8,2.4,97,59,32,29.89,29.66,24,7,24,0.00
2013-3-22,33.1,18.9,11.1,17.5,4.5,-8.5,89,56,32,30.04,29.86,19,8,19,0.00
2013-3-23,24.3,13.6,-1.8,10.7,3.2,-4.8,87,65,42,30.16,30.04,15,6,15,0.00
2013-3-24,26.2,16.3,5.0,8.4,1.7,-9.0,80,54,36,30.16,30.13,20,7,20,0.00
2013-3-25,37.6,22.8,10.2,8.8,1.5,-5.1,49,40,30,30.16,30.01,19,9,19,0.00
2013-3-26,54.1,34.6,24.1,19.1,9.2,-0.2,52,35,22,30.04,29.98,17,6,17,0.00
2013-3-27,59.0,38.8,25.7,21.8,14.9,7.6,51,39,24,30.07,30.01,17,7,17,0.00
2013-3-28,65.1,42.9,30.2,25.4,17.5,11.9,51,37,19,30.13,30.07,16,7,17,0.00
2013-3-29,60.4,40.6,30.0,36.0,23.8,12.9,96,54,28,30.19,30.10,17,6,20,0.16
2013-3-30,50.9,39.8,32.7,33.5,22.8,14.5,96,54,29,30.22,30.13,23,8,23,0.04
2013-3-31,56.5,40.0,25.3,23.7,17.7,11.2,79,42,27,30.16,30.04,17,7,17,0.00
2013-4-1,57.9,39.5,26.4,24.1,18.2,14.3,73,45,22,30.16,30.10,15,6,15,0.00
2013-4-2,61.2,44.7,28.0,24.6,18.6,12.2,60,37,22,30.13,30.01,16,8,16,0.00
2013-4-3,64.2,45.7,32.7,28.0,21.2,15.4,68,39,24,30.16,30.04,23,6,23,0.00
2013-4-4,64.9,48.3,30.9,30.7,25.5,20.3,75,42,26,30.13,29.92,15,4,17,0.00
2013-4-5,54.5,45.8,34.3,39.3,25.8,14.0,87,47,28,29.92,29.83,23,6,23,0.04
2013-4-6,60.6,42.7,31.3,27.5,22.3,16.0,79,46,26,29.95,29.86,17,5,17,0.00
2013-4-7,60.3,40.3,29.1,35.5,29.0,19.0,97,69,27,29.89,29.66,28,5,28,0.00
2013-4-8,34.3,18.1,10.4,33.6,14.8,5.7,98,87,79,30.16,29.75,17,2,17,0.00
2013-4-9,19.6,12.5,3.7,11.5,5.3,-6.0,81,73,55,30.25,30.13,15,2,15,0.00
2013-4-10,42.1,24.6,2.5,20.0,10.7,-7.6,85,57,38,30.19,29.86,14,5,14,0.00
2013-4-11,48.4,38.8,25.7,33.3,22.7,17.7,96,55,36,29.95,29.83,28,8,28,0.04
2013-4-12,50.0,33.6,18.9,29.3,17.8,9.1,95,54,32,30.04,29.78,23,7,23,0.00
2013-4-13,47.8,33.6,25.3,32.5,21.7,7.5,98,64,41,29.78,29.51,27,8,28,0.00
2013-4-14,34.9,25.8,16.5,21.2,10.1,-2.7,93,54,32,29.89,29.66,28,9,28,0.00
2013-4-15,23.0,17.1,11.8,17.3,10.8,5.2,92,77,51,30.04,29.86,15,6,15,0.00
2013-4-16,26.2,18.4,14.4,15.4,11.4,7.1,91,75,50,30.16,29.98,11,5,11,0.00
2013-4-17,28.9,17.0,7.2,14.6,7.8,2.3,89,69,42,30.19,30.16,20,8,20,0.00
2013-4-18,43.2,27.1,2.3,18.6,9.4,-3.7,76,49,36,30.16,30.10,21,6,21,0.00
2013-4-19,53.4,37.4,22.1,27.3,18.8,10.9,76,48,30,30.10,29.89,13,4,13,0.00
2013-4-20,60.6,40.6,28.2,27.9,22.2,17.9,84,50,27,30.01,29.92,17,5,17,0.00
2013-4-21,37.4,26.9,18.7,28.7,22.8,16.5,97,85,55,30.16,30.01,14,6,14,0.00
2013-4-22,27.5,17.4,7.0,16.9,9.2,-5.6,91,72,41,30.31,30.16,13,6,13,0.00
2013-4-23,47.8,24.8,7.7,25.8,6.6,-5.1,95,48,23,30.28,30.10,17,6,17,0.00
2013-4-24,54.5,34.7,19.4,23.8,16.7,8.4,95,51,26,30.19,29.98,21,6,21,0.00
2013-4-25,61.5,49.0,35.6,20.4,13.6,5.7,33,25,14,30.10,29.95,24,7,24,0.00
2013-4-26,72.7,52.3,34.9,28.2,19.3,9.0,48,29,11,30.19,30.10,18,7,18,0.00
2013-4-27,72.5,54.5,39.7,28.7,20.9,14.4,43,28,14,30.22,29.98,23,7,23,0.00
2013-4-28,62.6,46.5,38.8,38.4,27.4,20.3,84,48,27,30.07,29.89,14,6,14,0.00
2013-4-29,60.6,43.0,30.6,36.7,25.8,16.3,98,56,27,29.89,29.66,39,8,39,0.12
2013-4-30,41.7,29.7,23.7,24.5,16.8,8.1,95,62,34,30.19,29.83,24,5,24,0.00
2013-5-1,46.2,29.1,21.0,20.4,16.6,8.8,92,62,30,30.51,30.19,14,5,14,0.04
2013-5-2,56.3,38.5,21.9,22.2,14.8,7.2,54,39,25,30.54,30.31,20,9,20,0.00
2013-5-3,61.2,45.8,32.5,37.2,22.5,12.9,95,44,24,30.31,30.19,8,5,8,0.04
2013-5-4,53.1,40.2,35.4,40.1,34.8,29.0,96,82,45,30.28,30.22,13,5,13,0.28
2013-5-5,59.2,45.3,32.4,36.3,30.4,24.4,96,59,33,30.28,30.10,17,8,17,0.24
2013-5-6,66.9,51.5,36.3,31.0,27.0,22.1,63,41,24,30.13,30.01,16,7,16,0.24
2013-5-7,73.9,57.9,43.2,33.6,26.7,22.1,45,31,19,30.10,30.01,21,7,21,0.24
2013-5-8,70.7,54.0,43.0,36.6,31.2,24.5,66,44,23,30.22,30.10,15,6,15,0.24
2013-5-9,70.2,53.3,42.3,35.2,28.8,20.4,56,40,23,30.25,30.19,25,8,25,0.24
2013-5-10,68.4,52.4,35.8,42.9,29.0,23.2,80,43,24,30.42,30.25,24,8,24,0.24
2013-5-11,74.7,54.2,34.0,39.6,28.9,23.6,75,41,21,30.42,30.22,24,6,24,0.24
2013-5-12,83.3,65.2,50.2,46.1,31.7,26.5,82,30,17,30.25,30.13,19,7,19,0.24
2013-5-13,87.1,68.3,52.0,43.5,31.7,22.1,68,27,11,30.19,29.95,26,8,26,0.24
2013-5-14,75.7,59.4,41.0,41.5,34.6,25.2,85,41,24,30.07,29.98,28,6,28,0.24
2013-5-15,72.1,54.0,36.9,43.5,27.3,18.6,87,38,23,30.13,29.98,16,6,17,0.24
2013-5-16,66.4,50.1,43.2,48.0,39.7,34.0,93,69,40,30.01,29.95,25,4,25,0.24
2013-5-17,56.3,47.6,41.4,47.1,43.0,36.9,96,85,55,30.01,29.95,11,3,11,0.24
2013-5-18,54.5,45.5,39.9,45.0,41.9,36.8,98,88,57,30.04,29.98,15,6,15,0.35
2013-5-19,45.0,42.0,38.5,42.2,38.4,35.1,94,87,74,30.16,30.04,10,8,15,1.50
2013-5-20,56.5,46.0,37.2,43.0,38.0,30.6,97,76,41,30.22,30.16,15,12,15,0.51
2013-5-21,67.8,48.7,32.9,37.3,29.4,21.8,98,54,23,30.22,30.01,11,9,11,0.24
2013-5-22,66.0,46.4,32.5,45.7,38.7,29.9,97,77,34,30.04,29.95,16,6,16,0.35
2013-5-23,59.9,50.0,44.8,54.0,45.1,36.8,98,84,61,30.01,29.89,17,5,17,0.24
2013-5-24,71.2,53.5,38.7,45.4,25.1,11.2,96,40,12,30.07,29.89,31,10,31,0.24
2013-5-25,68.4,53.9,41.5,37.8,28.5,17.9,68,39,24,30.07,29.98,22,7,22,0.24
2013-5-26,67.3,52.7,35.4,46.7,36.6,26.1,95,56,31,30.10,29.98,22,5,22,0.00
2013-5-27,67.1,51.3,40.8,46.7,36.1,24.0,95,60,25,30.01,29.92,28,5,28,0.00
2013-5-28,65.7,50.5,41.4,44.4,36.1,24.0,96,61,35,29.92,29.83,17,5,17,0.98
2013-5-29,47.5,43.3,40.3,42.7,39.5,36.7,95,87,73,29.89,29.80,17,6,17,1.10
2013-5-30,56.7,47.9,38.7,39.7,32.3,23.6,95,58,36,29.95,29.80,24,8,24,0.00
2013-5-31,57.6,47.8,40.8,40.7,29.2,23.2,95,51,36,30.28,29.92,32,12,32,0.00
2013-6-1,62.4,50.2,35.6,40.8,35.0,30.8,95,59,35,30.31,30.16,17,5,17,0.00
2013-6-2,69.3,54.9,41.5,49.4,37.6,28.0,95,54,33,30.16,29.83,20,5,20,0.04
2013-6-3,66.2,49.7,37.4,47.4,34.4,21.5,98,62,25,30.13,29.86,26,8,26,0.04
2013-6-4,50.0,40.5,34.7,39.5,35.8,31.9,95,84,59,30.31,30.13,18,5,18,0.12
2013-6-5,67.5,49.5,32.4,42.6,32.2,25.3,98,57,27,30.31,30.16,15,6,15,0.04
2013-6-6,75.4,60.5,47.3,46.7,36.7,29.2,79,43,26,30.22,30.16,17,7,17,0.00
2013-6-7,80.6,62.7,49.1,49.4,39.4,31.6,84,44,25,30.16,29.92,22,5,22,0.04
2013-6-8,73.0,60.2,47.7,42.2,33.3,27.5,68,38,22,30.10,29.95,33,10,33,0.04
2013-6-9,86.0,63.9,44.4,43.6,35.5,29.8,60,37,19,30.10,29.92,22,7,22,0.04
2013-6-10,73.0,60.5,43.5,50.2,39.5,28.0,92,49,31,30.04,29.98,17,5,19,0.04
2013-6-11,74.7,58.8,48.0,58.4,47.7,39.0,94,69,32,30.16,29.95,26,6,26,0.24
2013-6-12,70.3,55.2,46.0,55.2,45.6,30.9,95,74,26,30.19,30.10,22,5,22,0.12
2013-6-13,74.3,57.1,47.7,49.5,40.7,30.8,96,57,33,30.13,30.01,37,5,37,0.04
2013-6-14,65.1,53.7,36.7,42.0,30.3,19.5,97,44,26,30.16,30.04,0,0,0,0.00
2013-6-30,88.1,72.2,56.8,55.8,50.3,45.6,94,51,27,30.20,29.76,10,5,12,0.01
2013-7-1,85.2,70.5,55.4,56.2,49.1,43.9,94,50,25,30.26,29.87,14,7,17,0.00
2013-7-2,87.4,72.2,56.3,50.2,43.3,36.9,76,39,18,30.21,29.73,13,6,16,0.00
2013-7-3,88.3,75.0,59.7,48.3,40.4,35.1,59,30,19,29.96,29.58,15,7,21,0.00
2013-7-4,86.1,65.6,53.6,59.7,49.5,38.6,93,60,27,29.95,29.56,19,6,24,2.56
2013-7-5,75.5,61.8,53.4,57.6,49.3,41.6,92,65,38,29.90,29.57,12,4,17,0.20
2013-7-6,72.4,61.0,51.6,57.8,50.3,45.2,87,69,46,29.78,29.65,10,3,12,0.12
2013-7-7,72.3,60.7,50.1,56.8,49.8,42.3,86,69,42,29.84,29.72,27,4,27,0.05
2013-7-8,82.2,65.7,57.2,54.8,46.6,35.0,66,52,23,29.84,29.67,20,6,35,0.01
2013-7-9,72.8,63.2,52.4,52.0,48.9,45.1,91,61,42,29.96,29.81,11,3,16,0.00
2013-7-10,83.9,68.1,51.5,53.6,45.5,39.6,74,47,23,29.94,29.70,9,3,13,0.00
2013-7-11,81.5,69.3,61.3,56.3,42.4,35.9,53,38,23,29.70,29.53,18,4,24,0.00
2013-7-12,80.0,67.0,55.9,54.1,44.4,30.6,77,47,17,29.69,29.60,20,5,26,0.00
2013-7-13,79.1,64.3,50.5,55.5,46.4,32.9,90,55,25,29.97,29.66,18,4,20,0.01
2013-7-14,73.4,61.8,51.9,54.7,50.3,46.0,91,68,38,29.99,29.89,13,4,18,0.01
2013-7-15,82.9,70.8,60.1,52.8,44.3,36.2,62,40,19,29.90,29.66,12,4,17,0.00
2013-7-16,67.4,56.4,50.8,53.0,47.1,37.4,90,73,34,30.05,29.71,16,6,20,0.01
2013-7-17,73.7,59.8,51.0,61.3,53.2,48.8,95,80,56,30.08,29.96,21,3,26,0.09
2013-7-18,79.7,69.0,58.4,55.0,47.0,34.8,76,47,27,29.98,29.83,14,4,18,0.00
2013-7-19,82.0,68.2,54.4,48.4,38.3,30.0,51,35,16,29.91,29.74,14,4,20,0.00
2013-7-20,81.5,66.7,56.0,48.9,39.7,30.8,50,38,26,29.83,29.65,15,5,17,0.00
2013-7-21,81.4,69.9,59.7,44.7,32.4,19.0,41,27,10,29.68,29.60,15,5,20,0.00
2013-7-22,83.5,70.1,51.3,48.1,36.2,22.7,55,31,13,29.77,29.62,12,4,18,0.00
2013-7-23,81.3,68.4,55.9,46.0,37.6,27.4,58,35,14,29.90,29.77,12,4,16,0.00
2013-7-24,82.5,69.8,59.1,50.0,43.8,36.6,61,41,20,29.90,29.70,14,6,20,0.00
2013-7-25,74.8,64.8,53.6,52.7,47.6,39.0,79,56,34,29.96,29.74,20,4,26,0.00
2013-7-26,77.6,63.4,45.8,53.6,48.6,43.1,94,62,33,30.02,29.88,8,3,14,0.00
2013-7-27,79.0,65.0,54.9,53.0,46.7,32.5,75,54,20,29.89,29.67,21,4,28,0.03
2013-7-28,69.2,61.0,52.9,54.4,48.8,44.1,87,65,45,29.77,29.64,17,5,24,0.24
2013-7-29,63.3,55.9,51.3,54.1,49.2,44.5,93,79,64,29.95,29.72,15,3,21,0.04
2013-7-30,67.7,58.0,49.1,54.2,48.4,42.9,88,71,50,30.09,29.90,18,4,22,0.24
2013-7-31,76.1,62.8,51.7,52.8,45.8,38.3,78,57,27,30.10,29.92,14,5,24,0.01
2013-8-1,75.1,65.2,54.2,55.4,49.2,42.0,87,57,38,29.96,29.62,18,6,23,0.00
2013-8-2,69.0,58.2,50.4,55.3,51.3,48.7,98,80,51,29.93,29.66,14,4,18,0.00
2013-8-3,68.3,59.3,50.9,56.7,51.6,44.7,94,77,56,29.96,29.86,9,3,12,0.00
2013-8-4,73.6,62.3,51.9,58.7,50.5,45.6,93,67,41,29.94,29.80,13,4,16,0.01
2013-8-5,77.3,64.3,54.3,54.3,46.8,37.4,80,55,27,29.87,29.68,24,4,28,0.00
2013-8-6,75.0,63.3,51.8,47.5,41.6,35.1,70,47,24,29.88,29.76,17,5,19,0.00
2013-8-7,77.3,64.1,53.0,47.5,42.1,27.6,68,47,16,29.89,29.74,12,4,16,0.00
2013-8-8,71.1,61.6,52.9,52.0,45.3,35.9,65,55,44,29.92,29.80,13,4,15,0.00
2013-8-9,65.1,57.8,50.7,53.2,49.6,45.3,88,74,61,29.96,29.90,12,4,15,0.04
2013-8-10,75.3,62.5,52.2,52.1,44.8,38.6,74,54,34,29.96,29.89,16,4,26,0.00
2013-8-11,76.6,64.5,53.3,44.0,40.2,36.5,60,42,26,29.94,29.85,19,5,33,0.00
2013-8-12,77.6,66.5,56.1,48.6,40.2,35.2,54,39,23,29.95,29.83,22,4,26,0.00
2013-8-13,72.9,61.6,53.9,48.2,44.2,39.2,78,54,35,30.00,29.87,18,5,27,0.15
2013-8-14,77.6,63.8,50.4,47.2,40.4,36.5,70,44,23,29.99,29.84,14,4,17,0.00
2013-8-15,82.3,68.2,57.2,47.1,38.8,32.9,47,36,18,29.89,29.78,15,6,20,0.00
2013-8-16,87.2,73.3,61.9,45.8,33.0,17.6,38,24,11,29.82,29.67,12,4,18,0.00
2013-8-17,81.0,71.4,59.3,47.7,36.3,17.8,42,29,11,29.77,29.68,11,4,14,0.00
2013-8-18,79.7,69.2,58.7,49.5,41.5,31.6,54,37,26,29.80,29.68,16,5,21,0.00
2013-8-19,84.1,71.9,61.7,45.4,38.6,35.7,41,31,18,29.81,29.66,15,5,17,0.00
2013-8-20,81.4,71.0,61.6,43.1,33.8,28.0,36,26,16,29.74,29.66,13,4,18,0.00
2013-8-21,74.6,67.1,59.7,46.0,38.3,30.6,54,36,24,29.90,29.71,11,3,15,0.00
2013-8-22,79.5,66.8,52.1,56.5,46.3,41.7,75,49,31,29.91,29.73,12,4,15,0.05
2013-8-23,83.0,70.3,62.5,50.6,44.9,37.4,58,41,20,29.74,29.57,16,5,24,0.00
2013-8-24,78.5,66.6,60.1,49.3,45.4,35.9,64,48,22,29.78,29.61,10,3,16,0.00
2013-8-25,80.2,71.6,62.9,46.8,40.1,32.4,48,33,22,29.79,29.69,14,6,18,0.00
2013-8-26,81.1,72.2,64.5,46.1,40.6,36.3,42,32,21,29.75,29.67,15,4,22,0.00
2013-8-27,77.8,68.6,61.3,51.6,43.5,38.5,61,41,28,29.80,29.70,13,5,18,0.00
2013-8-28,84.8,69.4,59.9,50.3,44.9,41.0,63,43,22,29.79,29.67,16,4,25,0.00
2013-8-29,79.5,66.6,56.8,52.6,45.5,39.4,67,48,31,29.89,29.79,22,6,24,0.00
2013-8-30,83.3,68.9,54.2,54.1,44.1,28.6,80,44,14,29.88,29.73,24,5,41,0.12
2013-8-31,72.9,64.6,56.6,43.9,41.1,37.6,54,43,31,29.91,29.75,11,4,17,0.00
2013-9-1,80.7,64.4,47.1,41.9,38.5,32.5,69,41,20,29.93,29.81,15,4,19,0.19
2013-9-2,77.7,67.4,61.9,57.3,42.5,31.1,84,45,23,29.83,29.68,15,5,25,0.02
2013-9-3,81.3,69.8,58.8,52.6,46.6,41.6,68,46,27,29.85,29.73,14,4,16,0.00
2013-9-4,79.6,68.5,60.1,57.3,51.2,46.0,75,55,36,29.88,29.82,12,4,19,0.00
2013-9-5,83.7,71.3,61.8,56.2,50.7,45.9,72,49,30,29.89,29.71,16,6,18,0.00
2013-9-6,83.2,69.4,57.6,54.3,48.1,44.4,67,48,27,29.81,29.73,20,6,26,0.01
2013-9-7,75.9,66.8,57.4,57.3,48.6,42.3,89,54,36,29.83,29.74,16,3,24,0.00
2013-9-8,71.5,59.9,53.8,60.3,50.0,42.6,88,71,50,30.03,29.65,17,3,21,0.08
2013-9-9,66.7,57.1,47.3,49.3,43.6,38.8,92,64,36,29.93,29.73,17,3,17,0.00
2013-9-10,71.2,59.8,49.0,43.9,41.0,37.3,65,51,35,30.00,29.92,14,5,16,0.00
2013-9-11,71.8,62.3,53.6,45.1,41.4,37.9,65,47,31,30.11,29.98,13,5,18,0.00
2013-9-12,68.2,59.4,47.9,49.7,44.6,40.7,77,59,39,30.11,29.90,19,5,25,0.00
2013-9-13,69.2,57.6,50.0,51.4,47.3,41.8,90,69,37,29.90,29.69,7,2,11,0.09
2013-9-14,59.4,54.8,52.0,52.8,50.3,45.6,95,85,61,29.99,29.72,13,4,20,1.37
2013-9-15,62.9,54.7,49.4,56.5,51.1,47.9,98,89,65,30.05,29.88,17,4,24,0.39
2013-9-16,72.8,59.8,49.0,56.6,50.3,41.1,98,73,44,29.88,29.66,13,3,17,0.00
2013-9-17,70.6,60.1,50.7,51.1,43.8,27.4,92,58,20,29.69,29.43,27,6,40,0.06
2013-9-18,62.2,51.4,40.1,45.7,37.3,24.4,92,62,27,29.86,29.47,20,5,27,0.00
2013-9-19,54.2,45.2,36.7,39.1,33.8,29.9,77,65,46,30.10,29.86,12,3,15,0.00
2013-9-20,64.2,51.2,40.3,38.0,29.8,19.2,68,45,24,30.09,29.75,15,6,21,0.00
2013-9-21,76.7,62.2,50.8,38.3,29.4,18.4,43,30,16,29.75,29.42,24,5,25,0.00
2013-9-22,65.3,58.1,51.2,43.0,36.1,29.1,62,45,28,29.47,29.32,17,4,22,0.00
2013-9-23,61.2,52.3,41.8,39.8,32.9,21.0,84,51,22,29.82,29.47,11,2,17,0.00
2013-9-24,63.4,54.1,40.3,37.5,30.8,25.9,65,42,28,29.83,29.50,38,9,47,0.00
2013-9-25,57.0,41.8,37.7,38.9,35.7,25.3,97,80,30,29.63,29.48,14,2,21,0.09
2013-9-26,37.6,34.0,29.6,35.6,32.5,28.0,98,95,85,30.03,29.62,14,4,19,0.10
2013-9-27,41.8,33.6,29.6,34.6,30.8,26.9,98,90,73,30.03,29.96,6,2,10,0.20
2013-9-28,55.2,44.7,28.6,39.0,31.2,26.7,96,62,37,29.99,29.81,21,4,30,0.01
2013-9-29,59.5,54.8,46.1,35.1,31.2,28.1,65,41,34,29.81,29.48,29,9,37,0.00
2013-9-30,57.1,47.7,38.6,42.9,37.8,26.4,89,70,43,29.77,29.37,24,6,33,0.05
2013-10-1,58.2,45.6,33.6,34.9,28.5,18.8,75,53,30,29.89,29.77,17,4,23,0.00
2013-10-2,44.7,40.2,33.4,35.8,31.7,28.1,93,72,58,30.00,29.88,10,2,15,0.00
2013-10-3,38.7,30.7,27.0,34.4,28.6,24.8,97,92,77,30.35,29.81,17,6,22,0.16
2013-10-4,30.5,26.8,23.4,25.6,22.4,14.5,96,84,64,30.56,30.34,17,7,22,0.00
2013-10-5,51.0,35.7,21.6,31.3,21.8,12.5,81,59,30,30.48,30.30,11,3,15,0.11
2013-10-6,63.1,47.4,36.4,39.7,30.4,19.8,78,53,25,30.30,30.02,14,4,18,0.00
2013-10-7,69.4,54.7,44.4,42.3,23.4,6.6,72,32,11,30.01,29.58,18,6,26,0.00
2013-10-8,51.6,43.2,34.9,32.9,28.2,21.7,83,57,32,29.90,29.58,11,3,14,0.00
2013-10-9,44.9,38.4,31.8,36.9,30.9,25.6,93,75,63,30.02,29.87,12,3,15,0.00
2013-10-10,47.6,41.0,32.2,38.4,34.7,30.1,95,79,62,29.87,29.67,18,2,19,0.02
2013-10-11,44.6,37.1,27.5,37.8,26.5,17.3,97,69,36,30.05,29.71,20,7,24,0.06
2013-10-12,44.8,35.0,27.4,32.4,25.8,15.8,90,70,53,30.15,30.05,15,3,22,0.00
2013-10-13,33.6,31.4,28.8,32.0,29.5,25.9,98,93,83,30.20,30.09,12,3,17,0.01
2013-10-14,32.5,30.2,29.0,29.5,27.1,23.1,96,89,75,30.48,30.19,15,7,21,0.00
2013-10-15,39.4,30.7,23.5,27.1,22.2,16.3,86,71,49,30.49,30.21,11,3,15,0.03
2013-10-16,46.5,33.8,25.8,29.6,20.2,10.2,95,60,25,30.22,30.08,18,3,19,0.00
2013-10-17,34.7,30.0,26.2,30.8,27.2,22.9,96,89,62,30.29,30.17,20,4,26,0.06
2013-10-18,46.6,34.6,26.7,26.0,20.2,15.0,89,57,34,30.29,30.08,15,4,20,0.06
2013-10-19,49.5,41.3,30.8,33.7,26.1,21.2,87,55,38,30.08,29.90,15,3,22,0.05
2013-10-20,45.5,38.8,32.6,33.1,29.1,24.8,95,69,46,30.07,29.97,17,7,24,0.26
2013-10-21,56.2,44.8,35.7,34.0,29.3,26.2,77,55,36,30.10,30.03,16,3,18,0.00
2013-10-22,55.3,45.3,36.6,37.4,30.9,26.6,76,58,41,30.12,30.03,11,3,13,0.00
2013-10-23,53.4,43.2,33.8,35.4,28.9,21.6,88,58,44,30.18,30.09,15,4,17,0.00
2013-10-24,51.8,42.1,31.3,39.3,31.5,25.4,95,67,48,30.22,30.11,13,4,16,0.00
2013-10-25,59.8,49.3,39.7,34.9,26.6,22.4,61,42,28,30.19,30.09,15,6,18,0.00
2013-10-26,56.1,47.5,39.7,34.3,24.3,16.1,59,40,29,30.19,29.95,14,5,18,0.00
2013-10-27,52.8,45.6,29.4,30.1,24.3,19.4,92,45,29,29.95,29.70,11,4,18,0.00
2013-10-28,28.9,20.5,15.7,27.3,18.7,13.7,95,93,89,30.23,29.95,14,5,19,0.00
2013-10-29,27.1,19.0,14.8,26.1,17.3,12.9,98,93,91,30.24,30.05,2,0,4,0.00
2013-10-30,39.7,31.7,24.2,35.4,27.5,22.3,98,85,71,30.05,29.89,13,2,14,0.05
2013-10-31,45.5,37.0,29.3,31.3,24.0,13.3,81,60,30,29.97,29.79,24,4,35,0.00
2013-11-1,44.5,37.0,31.7,23.2,20.3,18.1,65,51,38,30.15,29.98,14,5,20,0.00
2013-11-2,55.9,42.9,30.1,28.6,21.6,17.7,66,44,23,30.12,29.48,24,6,29,0.00
2013-11-3,47.8,30.5,23.3,30.7,20.1,5.6,97,69,28,29.92,29.48,17,2,25,0.00
2013-11-4,28.0,22.8,16.3,21.3,14.1,6.0,92,70,46,30.20,29.92,11,2,12,0.00
2013-11-5,32.0,23.9,14.8,20.4,10.0,2.2,77,55,41,30.26,30.18,11,3,14,0.00
2013-11-6,38.5,31.6,23.8,23.9,17.9,10.7,79,58,39,30.36,30.17,9,2,12,0.00
2013-11-7,48.8,35.2,25.0,31.7,23.7,17.8,76,63,43,30.37,29.71,21,4,30,0.00
2013-11-8,44.2,36.3,27.8,33.0,23.5,16.2,96,61,38,30.01,29.67,15,2,27,0.01
2013-11-9,37.7,31.7,27.3,25.0,22.2,19.7,84,69,52,30.23,30.01,9,2,13,0.00
2013-11-10,58.7,41.1,22.5,31.8,26.7,21.0,95,59,29,30.19,30.05,13,3,15,0.00
2013-11-11,37.5,28.9,20.4,34.2,26.5,18.8,97,91,76,30.59,30.14,8,1,11,0.00
2013-11-12,53.5,40.7,27.6,31.8,26.1,21.0,88,60,28,30.59,30.24,12,5,17,0.00
2013-11-13,54.1,45.2,28.5,30.7,25.6,19.6,83,48,26,30.24,29.92,12,3,16,0.00
2013-11-14,41.5,34.2,28.7,24.1,19.1,12.8,79,55,39,30.03,29.72,10,2,12,0.00
2013-11-15,38.1,33.5,27.7,23.2,16.2,10.8,65,49,34,29.72,29.35,16,4,20,0.00
2013-11-16,40.9,32.8,24.0,23.1,14.9,5.3,89,49,30,29.49,29.23,24,5,31,0.00
2013-11-17,36.1,27.8,20.1,12.4,8.4,2.1,59,44,31,30.03,29.50,14,3,22,0.00
2013-11-18,51.9,40.0,24.0,18.7,14.4,10.8,61,37,21,30.03,29.74,16,4,27,0.00
2013-11-19,50.9,44.3,35.9,25.2,21.4,15.4,54,40,31,29.74,29.52,21,6,30,0.00
2013-11-20,41.7,16.3,2.6,25.7,10.3,0.0,93,80,47,30.44,29.57,14,4,21,0.00
2013-11-21,19.9,10.1,2.6,14.6,4.3,0.0,93,78,55,30.80,30.44,13,1,14,0.00
2013-11-22,31.3,20.4,13.0,12.0,4.6,-1.0,70,51,25,30.81,30.74,12,3,15,0.00
2013-11-23,34.3,25.5,17.1,14.3,9.4,4.6,68,51,28,30.76,30.34,11,4,19,0.00
2013-11-24,47.0,37.9,30.3,17.3,10.8,3.9,57,33,17,30.33,30.08,18,4,23,0.00
2013-11-25,38.3,31.9,24.8,20.9,18.6,14.1,76,58,38,30.40,30.15,6,1,7,0.00
2013-11-26,41.1,34.4,26.3,24.4,19.6,12.8,72,55,35,30.42,30.14,11,4,15,0.00
2013-11-27,45.7,37.8,27.2,24.0,20.1,17.4,73,50,35,30.14,30.04,9,2,11,0.00
2013-11-28,42.4,34.6,25.4,26.4,20.5,16.2,71,57,39,30.12,30.06,10,3,14,0.00
2013-11-29,49.7,41.2,35.7,24.6,18.6,15.9,49,40,27,30.10,29.99,15,5,17,0.00
2013-11-30,43.1,37.8,31.7,25.3,22.2,18.6,66,54,41,30.12,30.04,9,3,12,0.00
2013-12-1,42.9,37.9,31.8,27.8,23.0,19.8,65,55,43,30.06,29.66,20,3,22,0.00
2013-12-2,45.9,34.0,14.1,33.1,26.4,11.9,96,76,38,29.67,29.39,22,4,32,0.00
2013-12-3,13.9,3.5,-2.0,11.7,0.6,-6.0,91,87,84,30.37,29.66,18,7,23,0.00
2013-12-4,-1.0,-5.3,-8.0,-5.0,-8.8,-12.0,86,85,82,30.57,30.37,9,2,13,0.00
2013-12-5,3.0,-6.5,-12.0,-1.0,-12.0,-18.0,86,76,67,30.65,30.52,10,2,12,0.00
2013-12-6,-10.0,-18.0,-25.0,-16.0,-22.6,-30.0,84,79,71,30.86,30.63,2,0,4,0.00
2013-12-7,-16.0,-21.0,-27.0,-20.0,-25.6,-32.0,83,79,76,30.86,30.59,1,0,4,0.00
2013-12-8,8.0,-1.1,-15.0,1.7,-6.0,-19.0,86,79,62,30.58,30.45,10,1,11,0.00
2013-12-9,24.7,8.8,-7.0,9.6,-1.6,-14.0,75,62,42,30.45,30.30,10,2,14,0.00
2013-12-10,27.0,17.3,2.0,11.8,5.5,-1.0,89,62,38,30.39,30.10,14,3,20,0.00
2013-12-11,31.6,20.7,7.0,15.2,6.3,-1.0,77,55,25,30.46,30.36,16,5,17,0.00
2013-12-12,41.0,32.9,25.2,20.4,16.1,13.0,70,50,36,30.37,29.95,16,4,25,0.00
2013-12-13,36.7,28.5,21.1,19.6,15.4,11.8,73,58,39,30.27,29.92,13,3,18,0.00
2013-12-14,41.8,29.8,21.3,21.8,15.1,11.0,66,55,36,30.30,30.14,18,4,18,0.00
2013-12-15,51.6,43.1,32.8,21.4,14.9,6.7,54,33,18,30.15,29.94,20,6,24,0.00
2013-12-16,47.9,42.2,33.7,20.9,14.5,8.3,53,33,23,30.17,29.93,23,6,34,0.00
2013-12-17,57.3,42.9,29.1,21.2,16.8,10.6,58,37,18,30.18,29.78,17,4,28,0.00
2013-12-18,48.4,40.5,22.6,22.9,17.6,12.7,95,43,25,29.78,29.58,20,3,29,0.00
2013-12-19,22.6,7.6,2.0,21.1,4.7,-1.0,94,87,63,30.19,29.63,12,3,17,0.00
2013-12-20,26.6,17.7,5.5,8.8,2.2,-7.0,82,52,24,30.18,29.67,15,2,18,0.00
2013-12-21,25.0,20.7,17.1,18.3,12.6,2.5,92,73,38,30.07,29.67,14,2,21,0.00
2013-12-22,20.2,13.1,6.6,18.7,10.4,3.8,94,89,84,30.43,30.05,12,2,16,0.00
2013-12-23,42.3,27.2,7.2,29.4,18.9,4.6,93,73,47,30.44,29.93,26,4,35,0.08
2013-12-24,40.1,31.6,28.9,29.8,18.0,9.1,94,60,38,30.16,30.00,30,15,43,0.00
2013-12-28,10.4,8.8,7.3,7.0,5.8,4.7,89,88,86,30.22,30.18,2,1,14,0.00